• Join FlightAware (Why Join?)
  • Login
  • US Flag 
07:34PM EDT


 

Airport Tracker/Info


-or-


 

Live Flight TrackerFlight Track Log ✈ AWI3722 ✈ 11-Apr-2013 ✈ KPWM - KPHL

Flight Track Log - Related Links

Times and Time Zones

All times are in EDT time to prevent confusion due to time zone crossing. See the AWI3722 flight status page for this flight to view local times or setup timezone preferences in your user account.

Time Position Orientation Groundspeed Altitude Reporting Facility
EDT Latitude Longitude Course Direction KTS MPH feet Rate Location/Type
03:41PM 43.5398 -70.1551 226° Southwest  Level FlightAware Approximate
03:41PM 43.6072 -70.5017 231° Southwest 267 307 6,000  Level Boston Center
03:41PM 43.5517 -70.5464 210° Southwest 262 302 8,800 2,820 Climbing Boston Center
03:42PM 43.4715 -70.2528 226° Southwest  Level FlightAware Approximate
03:42PM 43.4794 -70.5889 203° Southwest 262 302 11,700  Level Boston Center
03:43PM 43.4105 -70.3586 226° Southwest  Level FlightAware Approximate
03:44PM 43.3415 -70.4552 226° Southwest  Level FlightAware Approximate
03:44PM 43.4133 -70.6167 197° South 277 319 12,800  Level Boston Center
03:45PM 43.2798 -70.5605 232° Southwest  Level FlightAware Approximate
03:45PM 43.3325 -70.6503 197° South 304 350 14,200  Level Boston Center
03:45PM 43.2436 -70.6872 197° South 311 358 16,500 1,800 Climbing Boston Center
03:47PM 43.1711 -70.7206 199° South 311 358 17,800 1,140 Climbing Boston Center
03:48PM 43.0844 -70.7800 207° Southwest 306 352 18,900 1,020 Climbing Boston Center
03:49PM 43.0142 -70.8272 206° Southwest 304 350 19,900 1,020 Climbing Boston Center
03:49PM 42.9358 -70.8831 208° Southwest 312 359 21,000 1,020 Climbing Boston Center
03:50PM 42.8697 -70.9303 208° Southwest 326 375 22,000 1,020 Climbing Boston Center
03:52PM 42.7642 -70.9950 204° Southwest 341 392 23,100 1,020 Climbing Boston Center
03:52PM 42.6711 -71.0394 199° South 347 399 24,100 840 Climbing Boston Center
03:53PM 42.5758 -71.0839 199° South 360 414 24,800 600 Climbing Boston Center
03:54PM 42.4783 -71.1311 200° South 372 428 25,400 660 Climbing Boston Center
03:56PM 42.3853 -71.1922 206° Southwest 372 428 26,200 780 Climbing Boston Center
03:57PM 42.3047 -71.2722 216° Southwest 366 421 27,000 720 Climbing Boston Center
03:57PM 42.2222 -71.3553 217° Southwest 366 421 27,700 480 Climbing Boston Center
03:58PM 42.1417 -71.4350 216° Southwest 372 428 28,000 120 Climbing Boston Center
03:59PM 42.0589 -71.5144 215° Southwest 372 428 28,000  Level Boston Center
04:00PM 41.9639 -71.5997 214° Southwest 372 428 28,000  Level Boston Center
04:02PM 41.8811 -71.6844 217° Southwest 377 434 28,000  Level Boston Center
04:03PM 41.8022 -71.7633 217° Southwest 377 434 28,000  Level Boston Center
04:03PM 41.7194 -71.8422 215° Southwest 377 434 28,000  Level Boston Center
04:05PM 41.6364 -71.9206 215° Southwest 377 434 28,000  Level Boston Center
04:06PM 41.5533 -72.0017 216° Southwest 377 434 28,000  Level Boston Center
04:06PM 41.4703 -72.0800 215° Southwest 377 434 28,000  Level Boston Center
04:07PM 41.3872 -72.1578 215° Southwest 377 434 28,000  Level Boston Center
04:09PM 41.3061 -72.2383 217° Southwest 377 434 28,000  Level Boston Center
04:10PM 41.2228 -72.3214 217° Southwest 377 434 28,000  Level Boston Center
04:11PM 41.1394 -72.3989 215° Southwest 377 434 28,000  Level Boston Center
04:11PM 41.0500 -72.4814 215° Southwest 382 440 28,000  Level Boston Center
04:12PM 40.9581 -72.5664 215° Southwest 389 448 28,000  Level Boston Center
04:13PM 40.8664 -72.6569 217° Southwest 408 470 28,000 -60 Level Boston Center
04:15PM 40.7725 -72.7469 216° Southwest 414 476 27,900 -600 Descending Boston Center
04:15PM 40.6825 -72.8233 213° Southwest 420 483 26,900 -1,020 Descending Boston Center
04:16PM 40.5864 -72.9128 215° Southwest 426 490 25,900 -2,160 Descending Boston Center
04:18PM 40.4078 -73.0825 216° Southwest 411 473 20,600 -2,040 Descending New York Center
04:19PM 40.3272 -73.1586 216° Southwest 392 451 20,000 -360 Descending New York Center
04:20PM 40.2422 -73.2372 215° Southwest 385 443 20,000  Level New York Center
04:21PM 40.1594 -73.3103 214° Southwest 374 430 20,000  Level New York Center
04:22PM 40.0786 -73.3861 216° Southwest 368 423 20,000  Level New York Center
04:23PM 39.9956 -73.4586 214° Southwest 363 418 20,000  Level New York Center
04:24PM 39.9125 -73.5314 214° Southwest 363 418 20,000 -480 Level New York Center
04:26PM 39.8394 -73.6458 230° Southwest 360 414 19,000 -1,200 Descending Washington Center
04:27PM 39.7844 -73.7283 229° Southwest 345 397 17,500 -1,680 Descending Washington Center
04:28PM 39.7275 -73.8217 232° Southwest 340 391 15,700 -1,800 Descending Washington Center
04:29PM 39.6683 -73.9119 230° Southwest 335 386 14,000 -840 Descending Washington Center
04:30PM 39.5969 -74.0217 230° Southwest 321 369 14,000  Level FAA TRACON SMA TRACON (SMA)
04:30PM 39.5800 -74.0500 232° Southwest 324 373 14,000  Level FAA TRACON SMA TRACON (SMA)
04:30PM 39.5617 -74.0786 230° Southwest 325 374 14,000  Level FAA TRACON SMA TRACON (SMA)
04:31PM 39.5392 -74.1147 231° Southwest 323 372 14,000  Level FAA TRACON SMA TRACON (SMA)
04:31PM 39.5206 -74.1436 230° Southwest 325 374 14,000  Level FAA TRACON SMA TRACON (SMA)
04:31PM 39.5178 -74.1803 264° West 328 377 14,000  Level FAA TRACON SMA TRACON (SMA)
04:32PM 39.5217 -74.2156 278° West 321 369 14,000 -600 Level FAA TRACON SMA TRACON (SMA)
04:32PM 39.5239 -74.2586 274° West 328 377 13,600 -1,200 Descending FAA TRACON SMA TRACON (SMA)
04:32PM 39.5247 -74.2967 272° West 326 375 13,200 -1,260 Descending FAA TRACON SMA TRACON (SMA)
04:33PM 39.5264 -74.3306 274° West 321 369 12,800 -1,500 Descending FAA TRACON SMA TRACON (SMA)
04:33PM 39.5264 -74.3753 270° West 314 361 12,200 -1,500 Descending FAA TRACON SMA TRACON (SMA)
04:33PM 39.5275 -74.4081 273° West 304 350 11,800 -1,260 Descending FAA TRACON SMA TRACON (SMA)
04:34PM 39.5283 -74.4394 272° West 292 336 11,400 -1,320 Descending FAA TRACON SMA TRACON (SMA)
04:34PM 39.5292 -74.4772 272° West 277 319 10,900 -1,320 Descending FAA TRACON SMA TRACON (SMA)
04:34PM 39.5292 -74.5064 270° West 270 311 10,500 -1,080 Descending FAA TRACON SMA TRACON (SMA)
04:35PM 39.5303 -74.5336 273° West 261 300 10,200 -1,200 Descending FAA TRACON SMA TRACON (SMA)
04:35PM 39.5311 -74.5650 272° West 254 292 9,700 -1,500 Descending FAA TRACON SMA TRACON (SMA)
04:35PM 39.5311 -74.5969 270° West 257 296 9,200 -1,080 Descending FAA TRACON SMA TRACON (SMA)
04:36PM 39.5314 -74.6269 271° West 258 297 9,000 -360 Descending FAA TRACON SMA TRACON (SMA)
04:36PM 39.5319 -74.6622 271° West 258 297 9,000  Level FAA TRACON SMA TRACON (SMA)
04:36PM 39.5328 -74.6894 272° West 257 296 9,000  Level FAA TRACON SMA TRACON (SMA)
04:37PM 39.5333 -74.7186 271° West 255 293 9,000  Level FAA TRACON SMA TRACON (SMA)
04:37PM 39.5339 -74.7539 271° West 254 292 9,000  Level FAA TRACON SMA TRACON (SMA)
04:37PM 39.5342 -74.7808 271° West 255 293 9,000  Level FAA TRACON SMA TRACON (SMA)
04:38PM 39.5347 -74.8178 271° West 256 295 9,000 -360 Level FAA TRACON SMA TRACON (SMA)
04:38PM 39.5356 -74.8461 272° West 255 293 8,800 -780 Descending FAA TRACON SMA TRACON (SMA)
04:38PM 39.5358 -74.8739 271° West 255 293 8,500 -900 Descending FAA TRACON SMA TRACON (SMA)
04:39PM 39.5361 -74.9025 271° West 254 292 8,200 -780 Descending FAA TRACON SMA TRACON (SMA)
04:39PM 39.5358 -74.9314 269° West 229 264 8,000 -300 Descending FAA TRACON SMA TRACON (SMA)
04:39PM 39.5381 -74.9572 276° West 216 249 8,000  Level FAA TRACON SMA TRACON (SMA)
04:40PM 39.5456 -74.9825 291° West 215 247 8,000  Level FAA TRACON SMA TRACON (SMA)
04:40PM 39.5553 -75.0047 300° West 218 251 8,000 -360 Level FAA TRACON SMA TRACON (SMA)
04:40PM 39.5564 -75.0294 273° West 218 251 7,800 -780 Descending FAA TRACON SMA TRACON (SMA)
04:41PM 39.5464 -75.0494 237° Southwest 209 241 7,500 -1,080 Descending FAA TRACON SMA TRACON (SMA)
04:41PM 39.5339 -75.0753 238° Southwest 212 244 7,100 -1,080 Descending FAA TRACON SMA TRACON (SMA)
04:41PM 39.5242 -75.0947 237° Southwest 214 246 6,800 -900 Descending FAA TRACON SMA TRACON (SMA)
04:42PM 39.5144 -75.1147 238° Southwest 214 246 6,500 -1,080 Descending FAA TRACON SMA TRACON (SMA)
04:42PM 39.5169 -75.1422 277° West 227 261 6,100 -780 Descending FAA TRACON SMA TRACON (SMA)
04:42PM 39.5328 -75.1564 325° Northwest 221 254 6,000 -300 Descending FAA TRACON SMA TRACON (SMA)
04:43PM 39.5500 -75.1636 342° North 235 270 5,900 -780 Descending FAA TRACON SMA TRACON (SMA)
04:43PM 39.5756 -75.1733 344° North 235 270 5,500 -1,080 Descending FAA TRACON SMA TRACON (SMA)
04:43PM 39.5953 -75.1825 340° North 237 273 5,200 -900 Descending FAA TRACON SMA TRACON (SMA)
04:44PM 39.6125 -75.1892 343° North 234 269 4,900 -1,080 Descending FAA TRACON SMA TRACON (SMA)
04:44PM 39.6369 -75.2014 339° North 236 272 4,500 -1,080 Descending FAA TRACON SMA TRACON (SMA)
04:44PM 39.6572 -75.2108 340° North 238 274 4,200 -780 Descending FAA TRACON SMA TRACON (SMA)
04:45PM 39.6769 -75.2194 341° North 241 277 4,000 -300 Descending FAA TRACON SMA TRACON (SMA)
04:45PM 39.6961 -75.2289 339° North 238 274 4,000  Level FAA TRACON SMA TRACON (SMA)
04:45PM 39.7192 -75.2397 340° North 234 269 4,000  Level FAA TRACON SMA TRACON (SMA)
04:46PM 39.7397 -75.2492 341° North 235 270 4,000  Level FAA TRACON SMA TRACON (SMA)
04:46PM 39.7631 -75.2608 339° North 237 273 4,000  Level FAA TRACON SMA TRACON (SMA)
04:46PM 39.7808 -75.2694 340° North 238 274 4,000  Level FAA TRACON SMA TRACON (SMA)
04:47PM 39.8011 -75.2797 339° North 239 275 4,000  Level FAA TRACON SMA TRACON (SMA)
04:47PM 39.8206 -75.2892 340° North 238 274 4,000  Level FAA TRACON SMA TRACON (SMA)
04:47PM 39.8450 -75.3008 340° North 241 277 4,000  Level FAA TRACON SMA TRACON (SMA)
04:48PM 39.8631 -75.3103 338° Northwest 237 273 4,000  Level FAA TRACON SMA TRACON (SMA)
04:48PM 39.8819 -75.3183 342° North 209 241 4,000 -360 Level FAA TRACON SMA TRACON (SMA)
04:48PM 39.9008 -75.3281 338° Northwest 194 223 3,800 -840 Descending FAA TRACON SMA TRACON (SMA)
04:49PM 39.9169 -75.3386 333° Northwest 181 208 3,500 -1,080 Descending FAA TRACON SMA TRACON (SMA)
04:49PM 39.9306 -75.3492 329° Northwest 189 217 3,100 -780 Descending FAA TRACON SMA TRACON (SMA)
04:49PM 39.9442 -75.3617 325° Northwest 193 222 3,000 -180 Descending FAA TRACON SMA TRACON (SMA)
04:50PM 39.9600 -75.3767 324° Northwest 188 216 3,000  Level FAA TRACON SMA TRACON (SMA)
04:50PM 39.9736 -75.3886 326° Northwest 187 215 3,000  Level FAA TRACON SMA TRACON (SMA)
04:50PM 39.9894 -75.4031 325° Northwest 187 215 3,000  Level FAA TRACON SMA TRACON (SMA)
04:51PM 40.0019 -75.4139 326° Northwest 188 216 3,000  Level FAA TRACON SMA TRACON (SMA)
04:51PM 40.0172 -75.4269 327° Northwest 189 217 3,000  Level FAA TRACON SMA TRACON (SMA)
04:51PM 40.0322 -75.4339 340° North 198 228 3,000  Level FAA TRACON SMA TRACON (SMA)
04:52PM 40.0483 -75.4242 25° Northeast 187 215 3,000  Level FAA TRACON SMA TRACON (SMA)
04:52PM 40.0619 -75.4097 39° Northeast 185 213 3,000  Level FAA TRACON SMA TRACON (SMA)
04:52PM 40.0686 -75.3892 67° East 179 206 3,000  Level FAA TRACON SMA TRACON (SMA)
04:53PM 40.0675 -75.3694 94° East 170 196 3,000  Level FAA TRACON SMA TRACON (SMA)
04:53PM 40.0611 -75.3519 115° Southeast 167 192 3,000  Level FAA TRACON SMA TRACON (SMA)
04:53PM 40.0550 -75.3344 115° Southeast 176 203 3,000  Level FAA TRACON SMA TRACON (SMA)
04:54PM 40.0456 -75.3144 122° Southeast 169 194 3,000  Level FAA TRACON SMA TRACON (SMA)
04:54PM 40.0331 -75.3058 152° Southeast 177 204 3,000 -300 Level FAA TRACON SMA TRACON (SMA)
04:54PM 40.0183 -75.2992 161° South 170 196 2,800 -960 Descending FAA TRACON SMA TRACON (SMA)
04:55PM 40.0014 -75.2928 164° South 172 198 2,400 -1,260 Descending FAA TRACON SMA TRACON (SMA)
04:55PM 39.9872 -75.2872 163° South 158 182 2,000 -1,200 Descending FAA TRACON SMA TRACON (SMA)